Airfield :
LOGIN :

Register | Disclaimer

   EN    FR    IT 

 










Legend :    VFR   Marginal VFR   IFR   Intensive IFR   Very Intensive IFR
Visi :
Ceiling :
>= 8 km
>= 3000ft
5 to 8 km
1000 to 3000 ft
1500m to 5 km
500 to 1000 ft
800 to 1500m
200 to 500 ft
< 800m
< 200 ft
Symbols :   Thunderstorms  Fog  Heavy snow  Heavy precipitations  Wind > 20 kt
SIGMETs :     Misc.  Thunderstorms  Icing  Turbulence  Mountain Waves  Volcanic Ashes






- Airport Elevation : 265 ft


LFMC - Le Luc

CURRENT METAR :
  • 142100Z AUTO 29004KT 250V350 8000 -RA FEW013/// SCT028/// BKN054/// ///CB 10/09 Q0995

EXPIRED METARs :
  • 142030Z AUTO 05007KT 010V090 9999 RA FEW020/// SCT025/// BKN033/// ///CB 10/09 Q0994
  • 142000Z AUTO 08011KT 7000 -RA FEW009/// SCT016/// BKN036/// ///CB 10/09 Q0994
  • 141930Z AUTO VRB07KT 8000 RA SCT013/// BKN021/// BKN032/// ///CB 10/09 Q0994
  • 141900Z AUTO 06013KT 030V090 9999 -RA FEW014/// BKN019/// BKN034/// ///CB 10/09 Q0995
  • 141830Z AUTO 06013KT 9999 -RA FEW014/// BKN039/// BKN050/// ///TCU 10/09 Q0996

TAF N/A



MET'MAP, your aeronautical weather chart ! - Copyright ORBIFLY December 2007 - Disclaimer

ORBIFLY MET'MAP TEAM :

Programming & Development : Alexandra Zaïnal
Concept & Development : Baudouin d'Aumeries
Co-Development & Prog : Marc-Olivier Méhu
Technical & hardware support : Manuel Goepfert

Contact : metmap@orbifly.com




SOURCES & CREDITS :

   NOAA